Etusivu
METAR-TAF:

METAR-TAF

Lentoasemat :

Boothville-Venice, Louisiana, Yhdysvallat

Leveyspiiri: 29-20N, Pituuspiiri: 089-24W, korkeus merenpinnasta: 0 m

Tämänhetkinen sää

Tämä raportti tehtiin 48 minuuttia sitten, kello 23.51 UTC
Tuuli 11 kn lännestä/lounaasta
Lämpötila 22°C
Kosteus 88%
Ilmanpaine 1009 hPa
Näkyvyys: 9.7 km
Hajanaisia pilviä 1900 ft:n korkeudessa
utua

METAR: KBVE 252351Z AUTO 25011KT 6SM BR SCT019 22/20 A2980 RMK AO2 SLP091 60171 T02220200 10256 20200 53019

Aika: 19:39 (00:39 UTC)


TAF: puuttuu

Säähavainnot ja -ennusteet yli 4000 lentoasemalta (METAR- ja TAF-raportit).

Käytössä olevat sääasemat on merkitty karttaan keltaisilla ja punaisilla pisteillä.

Aseta hiiri pisteen päälle nähdäksesi sääaseman nimen.

Klikkaa sitten nähdäksesi säähavainnot ja -ennusteet.

Kartan vaihtaminen: klikkaa mustalla rastilla varustettuja vihreitä pisteitä, niin voit zoomata sisään; viivalla varustettua vihreää pistettä, niin voit zoomata ulos tai vihreitä nuolia, niin pääset viereisille kartoille.


METAR-TAF: